Time;durP1;ratioP1;P1;durP2;ratioP2;P2;SDS_P1;SDS_P2;PMS_P1;PMS_P2;Temp;Humidity;BMP_temperature;BMP_pressure;BME280_temperature;BME280_humidity;BME280_pressure;Samples;Min_cycle;Max_cycle;Signal;HPM_P1;HPM_P2
2021/11/08 00:00:29;;;;;;;6.43;5.95;;;9.80;75.40;;;;;;4952131;28;20047;-78
2021/11/08 00:03:00;;;;;;;5.40;5.10;;;9.80;75.40;;;;;;4972369;28;20487;-78
2021/11/08 00:05:26;;;;;;;;;;;9.80;75.40;;;;;;4969355;28;20023;-78
2021/11/08 00:07:57;;;;;;;5.05;4.80;;;9.80;75.50;;;;;;4970458;28;19910;-78
2021/11/08 00:10:29;;;;;;;;;;;9.70;75.40;;;;;;4970733;28;20023;-78
2021/11/08 00:12:55;;;;;;;;;;;9.60;75.40;;;;;;4974996;28;19910;-78
2021/11/08 00:15:26;;;;;;;6.93;6.38;;;9.60;75.40;;;;;;4966354;28;19921;-78
2021/11/08 00:18:01;;;;;;;4.88;4.63;;;9.60;75.40;;;;;;4970155;28;20248;-78
2021/11/08 00:20:41;;;;;;;5.90;5.50;;;9.50;75.40;;;;;;4969667;28;20423;-78
2021/11/08 00:23:09;;;;;;;5.47;5.07;;;9.50;75.50;;;;;;4951818;28;20087;-78
2021/11/08 00:25:36;;;;;;;7.25;5.28;;;9.50;75.50;;;;;;4960178;28;20499;-78
2021/11/08 00:28:02;;;;;;;4.10;3.90;;;9.50;75.60;;;;;;4962087;28;20047;-78
2021/11/08 00:30:30;;;;;;;4.95;4.55;;;9.40;75.60;;;;;;4983461;28;20384;-78
2021/11/08 00:32:58;;;;;;;4.97;4.68;;;9.40;75.60;;;;;;4955169;28;20039;-78
2021/11/08 00:35:24;;;;;;;4.55;4.35;;;9.40;75.60;;;;;;4969181;28;20383;-78
2021/11/08 00:37:50;;;;;;;5.22;4.93;;;9.40;75.60;;;;;;4970586;28;20388;-78
2021/11/08 00:40:18;;;;;;;4.93;4.63;;;9.40;75.60;;;;;;4951151;28;20036;-78
2021/11/08 00:42:44;;;;;;;5.13;4.82;;;9.40;75.60;;;;;;4970115;28;20033;-78
2021/11/08 00:45:11;;;;;;;4.75;4.45;;;9.40;75.60;;;;;;4967522;28;20034;-78
2021/11/08 00:47:37;;;;;;;9.32;5.57;;;9.40;75.60;;;;;;4935575;28;20404;-78
2021/11/08 00:50:04;;;;;;;11.88;6.70;;;9.40;75.60;;;;;;4967200;28;20033;-78
2021/11/08 00:52:30;;;;;;;5.50;5.10;;;9.40;75.60;;;;;;4969177;28;20043;-78
2021/11/08 00:54:58;;;;;;;6.53;5.93;;;9.40;75.60;;;;;;4970872;28;20030;-78
2021/11/08 00:57:28;;;;;;;5.10;4.72;;;9.40;75.50;;;;;;4973902;28;20415;-78
2021/11/08 00:59:55;;;;;;;6.70;4.95;;;9.40;75.60;;;;;;4973897;28;20530;-78
2021/11/08 01:02:25;;;;;;;15.75;5.78;;;9.40;75.50;;;;;;4975042;28;20149;-78
2021/11/08 01:04:53;;;;;;;11.60;6.25;;;9.40;75.50;;;;;;4976265;28;20027;-78
2021/11/08 01:07:19;;;;;;;11.43;5.43;;;9.30;75.50;;;;;;4974109;28;20484;-78
2021/11/08 01:09:45;;;;;;;6.10;5.55;;;9.30;75.60;;;;;;4973614;28;20031;-78
2021/11/08 01:12:12;;;;;;;6.10;5.55;;;9.30;75.60;;;;;;4972816;28;20031;-78
2021/11/08 01:14:38;;;;;;;4.45;4.15;;;9.30;75.70;;;;;;4954344;28;20035;-78
2021/11/08 01:17:05;;;;;;;4.20;4.00;;;9.30;75.60;;;;;;4971694;28;20488;-78
2021/11/08 01:19:32;;;;;;;7.07;6.05;;;9.30;75.60;;;;;;4970787;28;20390;-78
2021/11/08 01:22:16;;;;;;;6.38;5.72;;;9.30;75.70;;;;;;4954629;28;20047;-78
2021/11/08 01:24:52;;;;;;;4.63;4.35;;;9.20;75.60;;;;;;4964639;28;20384;-78
2021/11/08 01:27:35;;;;;;;11.25;5.30;;;9.20;75.60;;;;;;4973936;28;20376;-78
2021/11/08 01:30:13;;;;;;;4.78;4.43;;;9.20;75.50;;;;;;4966101;28;20476;-78
2021/11/08 01:32:40;;;;;;;5.22;4.93;;;9.20;75.60;;;;;;4972521;28;20045;-78
2021/11/08 01:35:07;;;;;;;4.53;4.32;;;9.20;75.60;;;;;;4973086;28;20042;-78
2021/11/08 01:37:33;;;;;;;5.43;5.03;;;9.20;75.70;;;;;;4974177;28;20038;-78
2021/11/08 01:39:59;;;;;;;4.40;4.20;;;9.10;75.70;;;;;;4972952;28;20030;-78
2021/11/08 01:42:25;;;;;;;5.72;5.22;;;9.10;75.70;;;;;;4973625;28;20480;-78
2021/11/08 01:44:51;;;;;;;6.80;5.80;;;9.10;75.70;;;;;;4970951;28;20026;-78
2021/11/08 01:47:17;;;;;;;5.63;5.28;;;9.10;75.70;;;;;;4973616;28;20047;-78
2021/11/08 01:49:43;;;;;;;6.05;5.35;;;9.10;75.80;;;;;;4972779;28;20059;-78
2021/11/08 01:52:11;;;;;;;7.00;6.35;;;9.10;75.80;;;;;;4982571;28;20039;-78
2021/11/08 01:54:38;;;;;;;16.80;10.25;;;9.10;76.60;;;;;;4972560;28;20027;-78
2021/11/08 01:57:05;;;;;;;13.32;7.38;;;9.10;75.80;;;;;;4972342;28;20399;-78
2021/11/08 01:59:32;;;;;;;5.70;5.32;;;9.00;75.80;;;;;;4972100;28;20046;-78
2021/11/08 02:01:59;;;;;;;5.22;4.80;;;9.00;75.80;;;;;;4973513;28;20066;-78
2021/11/08 02:04:26;;;;;;;4.47;4.28;;;9.00;75.80;;;;;;4971510;28;20038;-78
2021/11/08 02:06:52;;;;;;;10.65;5.85;;;9.00;75.80;;;;;;4972405;28;20446;-78
2021/11/08 02:09:19;;;;;;;5.50;5.00;;;9.00;75.80;;;;;;4971405;28;20043;-78
2021/11/08 02:11:45;;;;;;;5.05;4.75;;;9.00;75.80;;;;;;4956915;28;20491;-78
2021/11/08 02:14:12;;;;;;;12.18;6.88;;;8.90;75.80;;;;;;4974156;28;20053;-78
2021/11/08 02:16:38;;;;;;;5.53;5.10;;;8.90;75.80;;;;;;4973782;28;20412;-78
2021/11/08 02:19:05;;;;;;;9.55;6.43;;;8.90;75.80;;;;;;4971412;28;20037;-78
2021/11/08 02:21:31;;;;;;;10.73;6.80;;;8.90;75.90;;;;;;4962848;28;20031;-78
2021/11/08 02:23:58;;;;;;;5.82;5.15;;;8.90;75.80;;;;;;4984233;28;20391;-78
2021/11/08 02:26:24;;;;;;;6.03;4.88;;;8.90;75.90;;;;;;4971893;28;20034;-78
2021/11/08 02:28:52;;;;;;;7.63;5.80;;;8.90;75.90;;;;;;4972713;28;20037;-78
2021/11/08 02:31:20;;;;;;;4.28;4.07;;;8.80;75.80;;;;;;4972835;28;20031;-78
2021/11/08 02:33:47;;;;;;;4.53;4.32;;;8.80;75.90;;;;;;4985683;28;20034;-78
2021/11/08 02:36:13;;;;;;;4.55;4.35;;;8.80;75.90;;;;;;4968895;28;20050;-78
2021/11/08 02:38:44;;;;;;;5.00;4.70;;;8.80;76.00;;;;;;4956933;28;20068;-78
2021/11/08 02:41:10;;;;;;;5.32;5.03;;;8.70;76.00;;;;;;4965351;28;20034;-78
2021/11/08 02:43:37;;;;;;;17.00;5.32;;;8.80;76.00;;;;;;4970045;28;20046;-78
2021/11/08 02:46:09;;;;;;;4.78;4.35;;;8.70;76.00;;;;;;4970060;28;20030;-78
2021/11/08 02:48:37;;;;;;;5.05;4.72;;;8.70;76.00;;;;;;4956034;28;20488;-78
2021/11/08 02:51:23;;;;;;;4.32;4.13;;;8.70;76.00;;;;;;4972058;28;20480;-78
2021/11/08 02:53:52;;;;;;;10.57;4.97;;;8.70;76.00;;;;;;4971653;28;20041;-78
2021/11/08 02:56:19;;;;;;;4.80;4.40;;;8.70;76.00;;;;;;4970970;28;20043;-78
2021/11/08 02:58:46;;;;;;;4.70;4.43;;;8.70;76.00;;;;;;4972175;28;20468;-78
2021/11/08 03:01:15;;;;;;;7.68;5.07;;;8.60;76.00;;;;;;4968895;28;20404;-78
2021/11/08 03:03:45;;;;;;;6.22;4.65;;;8.60;76.00;;;;;;4969498;28;20035;-78
2021/11/08 03:08:38;;;;;;;6.18;4.15;;;8.60;76.00;;;;;;4989358;28;20043;-78
2021/11/08 03:11:04;;;;;;;5.07;4.78;;;8.60;76.00;;;;;;4957342;28;20042;-78
2021/11/08 03:13:34;;;;;;;4.70;4.40;;;8.60;76.00;;;;;;4976667;28;20035;-78
2021/11/08 03:19:03;;;;;;;4.78;4.53;;;8.60;76.00;;;;;;4949117;28;20131;-78
2021/11/08 03:21:31;;;;;;;4.18;3.97;;;8.60;76.00;;;;;;4947471;28;20047;-78
2021/11/08 03:24:00;;;;;;;4.30;4.10;;;8.60;76.00;;;;;;4953385;28;20046;-78
2021/11/08 03:26:38;;;;;;;4.05;3.85;;;8.60;76.00;;;;;;4947648;29;20035;-78
2021/11/08 03:29:05;;;;;;;4.47;4.28;;;8.60;76.10;;;;;;4927990;29;20043;-78
2021/11/08 03:31:33;;;;;;;4.68;4.47;;;8.50;76.00;;;;;;4948040;29;20046;-78
2021/11/08 03:34:00;;;;;;;5.15;4.85;;;8.50;76.00;;;;;;4932151;29;20043;-78
2021/11/08 03:36:26;;;;;;;5.20;4.80;;;8.50;76.10;;;;;;4947268;29;20047;-77
2021/11/08 03:38:52;;;;;;;4.45;4.25;;;8.50;76.10;;;;;;4930389;29;20035;-78
2021/11/08 03:41:18;;;;;;;4.40;4.10;;;8.50;76.10;;;;;;4950977;29;20516;-78
2021/11/08 03:43:44;;;;;;;4.40;4.20;;;8.50;76.00;;;;;;4946574;28;20027;-78
2021/11/08 03:46:10;;;;;;;5.05;4.63;;;8.50;76.10;;;;;;4949618;29;20566;-78
2021/11/08 03:48:37;;;;;;;4.60;4.30;;;8.50;76.10;;;;;;4949437;29;20596;-78
2021/11/08 03:51:03;;;;;;;4.70;4.40;;;8.40;76.10;;;;;;4949903;29;20031;-77
2021/11/08 03:53:29;;;;;;;4.30;4.10;;;8.50;76.20;;;;;;4945230;29;20544;-78
2021/11/08 03:55:55;;;;;;;4.82;4.53;;;8.40;76.10;;;;;;4966358;28;20034;-77
2021/11/08 03:58:21;;;;;;;3.83;3.63;;;8.40;76.20;;;;;;4970985;28;20031;-78
2021/11/08 04:00:49;;;;;;;4.13;3.92;;;8.40;76.20;;;;;;4954099;28;20042;-78
2021/11/08 04:03:15;;;;;;;4.57;4.07;;;8.40;76.30;;;;;;4954112;28;20302;-78
2021/11/08 04:05:41;;;;;;;4.15;3.85;;;8.40;76.30;;;;;;4970910;28;20399;-78
2021/11/08 04:08:11;;;;;;;4.10;3.90;;;8.40;76.30;;;;;;4952695;28;20037;-77
2021/11/08 04:10:38;;;;;;;4.15;3.95;;;8.30;76.30;;;;;;4969121;28;20388;-78
2021/11/08 04:13:04;;;;;;;4.25;4.05;;;8.30;76.30;;;;;;4950358;28;20062;-76
2021/11/08 04:15:37;;;;;;;4.50;4.30;;;8.30;76.30;;;;;;4969435;28;20046;-76
2021/11/08 04:18:27;;;;;;;4.13;3.92;;;8.30;76.30;;;;;;4967982;28;20031;-76
2021/11/08 04:20:54;;;;;;;4.20;4.00;;;8.20;76.30;;;;;;4970711;28;20050;-76
2021/11/08 04:23:21;;;;;;;4.00;3.80;;;8.20;76.30;;;;;;4970428;28;20034;-76
2021/11/08 04:25:48;;;;;;;4.57;4.28;;;8.20;76.30;;;;;;4969666;28;20038;-76
2021/11/08 04:28:14;;;;;;;4.20;4.00;;;8.20;76.30;;;;;;4970625;28;20380;-76
2021/11/08 04:30:44;;;;;;;4.32;4.03;;;8.10;76.40;;;;;;4969476;28;20039;-76
2021/11/08 04:33:16;;;;;;;3.95;3.75;;;8.10;76.50;;;;;;4974880;28;20031;-76
2021/11/08 04:38:43;;;;;;;4.22;4.03;;;8.10;76.50;;;;;;4915993;29;20036;-76
2021/11/08 04:49:30;;;;;;;4.45;4.18;;;8.00;76.40;;;;;;4897985;29;20048;-76
2021/11/08 04:51:56;;;;;;;4.63;4.43;;;8.00;76.40;;;;;;4891397;29;20043;-76
2021/11/08 04:54:37;;;;;;;4.72;4.43;;;8.00;76.40;;;;;;4912077;29;20373;-76
2021/11/08 05:31:47;;;;;;;4.07;3.88;;;7.80;76.60;;;;;;4970631;28;20037;-76
2021/11/08 05:34:14;;;;;;;4.15;3.95;;;7.70;76.50;;;;;;4964340;28;20031;-76
2021/11/08 05:36:41;;;;;;;5.03;4.53;;;7.70;76.50;;;;;;4972284;28;20515;-79
2021/11/08 05:39:08;;;;;;;4.35;4.10;;;7.70;76.60;;;;;;4953920;28;20047;-76
2021/11/08 05:41:35;;;;;;;4.35;3.92;;;7.70;76.50;;;;;;4955619;28;20047;-76
2021/11/08 05:44:02;;;;;;;4.55;4.25;;;7.70;76.60;;;;;;4969304;28;20053;-76
2021/11/08 05:46:29;;;;;;;3.78;3.58;;;7.70;76.60;;;;;;4944792;28;20042;-76
2021/11/08 05:48:56;;;;;;;4.20;4.00;;;7.70;76.70;;;;;;4971817;28;20411;-76
2021/11/08 05:51:22;;;;;;;4.60;4.28;;;7.60;76.70;;;;;;4971346;28;20041;-76
2021/11/08 05:53:49;;;;;;;4.00;3.80;;;7.60;76.70;;;;;;4984380;28;20472;-76
2021/11/08 06:50:34;;;;;;;3.95;3.75;;;7.30;76.60;;;;;;4968984;28;20039;-80
2021/11/08 06:53:10;;;;;;;3.80;3.60;;;7.30;76.60;;;;;;4961580;28;20039;-80
2021/11/08 06:55:37;;;;;;;5.18;4.78;;;7.30;76.60;;;;;;4979177;28;20034;-80
2021/11/08 06:58:06;;;;;;;3.88;3.67;;;7.30;76.60;;;;;;4972506;28;20046;-80
2021/11/08 07:00:33;;;;;;;4.40;4.20;;;7.40;76.60;;;;;;4970241;28;20062;-80
2021/11/08 07:02:59;;;;;;;4.80;4.50;;;7.40;76.60;;;;;;4967749;28;20412;-80
2021/11/08 07:05:25;;;;;;;4.03;3.83;;;7.30;76.60;;;;;;4970457;28;20027;-80
2021/11/08 07:07:51;;;;;;;4.35;4.15;;;7.40;76.60;;;;;;4970607;28;20395;-80
2021/11/08 07:10:20;;;;;;;4.57;4.38;;;7.40;76.60;;;;;;4971863;28;20035;-80
2021/11/08 07:12:48;;;;;;;4.57;4.30;;;7.40;76.60;;;;;;4972225;28;20031;-80
2021/11/08 07:15:14;;;;;;;5.38;4.97;;;7.50;76.60;;;;;;4970783;28;20026;-80
2021/11/08 07:17:40;;;;;;;4.60;4.38;;;7.50;76.60;;;;;;4972742;28;20060;-82
2021/11/08 07:20:07;;;;;;;5.28;4.88;;;7.50;76.60;;;;;;4968720;28;20054;-80
2021/11/08 07:22:33;;;;;;;5.32;5.03;;;7.50;76.60;;;;;;4970515;28;20043;-80
2021/11/08 07:25:00;;;;;;;5.97;5.68;;;7.50;76.60;;;;;;4970537;28;20022;-80
2021/11/08 07:27:26;;;;;;;5.03;4.72;;;7.50;76.60;;;;;;4973663;28;20377;-80
2021/11/08 07:29:52;;;;;;;4.60;4.30;;;7.50;76.50;;;;;;4951135;28;20042;-79
2021/11/08 07:32:18;;;;;;;4.97;4.68;;;7.50;76.60;;;;;;4971181;28;20046;-79
2021/11/08 07:34:46;;;;;;;4.22;4.03;;;7.50;76.60;;;;;;4970364;28;20034;-81
2021/11/08 07:37:12;;;;;;;5.22;4.85;;;7.50;76.60;;;;;;4970322;28;20399;-81
2021/11/08 07:39:38;;;;;;;4.05;3.85;;;7.50;76.50;;;;;;4972927;28;20039;-82
2021/11/08 07:42:04;;;;;;;4.75;4.45;;;7.60;76.50;;;;;;4977915;28;20377;-78
2021/11/08 07:44:30;;;;;;;8.40;4.25;;;7.70;76.50;;;;;;4972792;28;20498;-79
2021/11/08 07:46:56;;;;;;;4.35;4.15;;;7.70;76.40;;;;;;4968180;28;20019;-78
2021/11/08 07:49:22;;;;;;;5.25;4.90;;;7.70;76.30;;;;;;4972314;28;20504;-82
2021/11/08 07:51:50;;;;;;;4.55;4.35;;;7.70;76.20;;;;;;4977384;28;20027;-82
2021/11/08 07:54:16;;;;;;;4.78;4.47;;;7.80;76.10;;;;;;4971219;28;20030;-82
2021/11/08 07:56:44;;;;;;;4.72;4.43;;;7.90;76.10;;;;;;4949722;28;20039;-81
2021/11/08 07:59:10;;;;;;;4.50;4.20;;;7.90;76.20;;;;;;4971174;28;20047;-82
2021/11/08 08:01:36;;;;;;;4.38;4.00;;;8.00;76.00;;;;;;4945185;28;20028;-80
2021/11/08 08:04:02;;;;;;;5.65;5.22;;;8.10;75.90;;;;;;4957573;28;20042;-80
2021/11/08 08:06:28;;;;;;;4.38;4.18;;;8.20;75.80;;;;;;4955007;28;20035;-79
2021/11/08 08:08:55;;;;;;;4.78;4.47;;;8.30;75.70;;;;;;4988408;28;20034;-78
2021/11/08 08:11:22;;;;;;;5.40;4.43;;;8.30;75.50;;;;;;4975716;28;20042;-78
2021/11/08 08:13:48;;;;;;;4.65;4.35;;;8.40;75.50;;;;;;4974999;28;20027;-79
2021/11/08 08:16:17;;;;;;;4.47;4.25;;;8.40;75.50;;;;;;4973695;28;20488;-77
2021/11/08 08:18:43;;;;;;;4.50;4.30;;;8.40;75.50;;;;;;4973678;28;20030;-79
2021/11/08 08:21:10;;;;;;;4.55;4.35;;;8.50;75.60;;;;;;4960371;28;20050;-79
2021/11/08 08:23:36;;;;;;;4.20;4.00;;;8.50;75.50;;;;;;4957707;28;20403;-80
2021/11/08 08:26:02;;;;;;;4.40;4.20;;;8.50;75.50;;;;;;4974714;28;20034;-80
2021/11/08 08:28:28;;;;;;;5.68;5.28;;;8.60;75.50;;;;;;4971002;28;20031;-81
2021/11/08 08:30:54;;;;;;;4.80;4.55;;;8.60;75.50;;;;;;4974168;28;20035;-81
2021/11/08 08:33:21;;;;;;;4.10;3.80;;;8.60;75.50;;;;;;4976532;28;20038;-81
2021/11/08 08:35:47;;;;;;;4.03;3.83;;;8.80;75.50;;;;;;4974632;28;20043;-80
2021/11/08 08:38:17;;;;;;;12.68;4.18;;;8.80;75.30;;;;;;4976979;28;20038;-81
2021/11/08 08:40:44;;;;;;;6.47;6.07;;;8.90;75.30;;;;;;4977068;28;20494;-83
2021/11/08 08:43:10;;;;;;;5.18;4.82;;;9.00;75.20;;;;;;4986928;28;20488;-81
2021/11/08 08:45:36;;;;;;;5.28;4.97;;;9.20;75.10;;;;;;4974139;28;20054;-81
2021/11/08 08:48:03;;;;;;;5.80;5.32;;;9.40;74.90;;;;;;4976433;28;20034;-84
2021/11/08 08:50:30;;;;;;;17.73;6.82;;;9.50;74.80;;;;;;4992053;28;20046;-81
2021/11/08 08:52:56;;;;;;;5.78;5.38;;;9.60;74.60;;;;;;4982399;28;20042;-82
2021/11/08 08:55:22;;;;;;;5.07;4.78;;;9.80;74.60;;;;;;4957342;28;20395;-83
2021/11/08 08:57:48;;;;;;;5.05;4.75;;;9.90;74.50;;;;;;4960456;28;20388;-83
2021/11/08 09:00:16;;;;;;;5.20;4.80;;;10.00;74.40;;;;;;4975734;28;20050;-83
2021/11/08 09:02:42;;;;;;;5.18;4.80;;;10.00;74.40;;;;;;4977227;28;20038;-83
2021/11/08 09:05:10;;;;;;;5.28;4.97;;;10.00;74.40;;;;;;4955811;28;20063;-83
2021/11/08 09:07:37;;;;;;;4.97;4.65;;;10.10;74.60;;;;;;4974508;28;20026;-82
2021/11/08 09:10:03;;;;;;;5.30;4.90;;;10.10;74.60;;;;;;4974133;28;20038;-81
2021/11/08 09:12:29;;;;;;;4.35;4.05;;;10.20;74.70;;;;;;4974952;28;20039;-82
2021/11/08 09:14:55;;;;;;;4.53;4.13;;;10.20;74.60;;;;;;4978250;28;20035;-82
2021/11/08 09:17:22;;;;;;;4.50;4.20;;;10.30;74.60;;;;;;4974013;28;20486;-80
2021/11/08 09:19:48;;;;;;;5.88;5.40;;;10.30;74.60;;;;;;4973331;28;20035;-80
2021/11/08 09:22:14;;;;;;;17.77;4.50;;;10.40;74.70;;;;;;4974115;28;20035;-80
2021/11/08 09:24:41;;;;;;;5.30;4.90;;;10.40;74.60;;;;;;4972864;28;20034;-80
2021/11/08 09:27:07;;;;;;;4.03;3.83;;;10.50;74.60;;;;;;4974859;28;20380;-80
2021/11/08 09:29:33;;;;;;;5.10;4.53;;;10.60;74.60;;;;;;4974406;28;20503;-81
2021/11/08 09:31:59;;;;;;;4.50;4.30;;;10.60;74.50;;;;;;4973644;28;20481;-82
2021/11/08 09:34:26;;;;;;;5.82;5.28;;;10.60;74.50;;;;;;4973512;28;20043;-82
2021/11/08 09:36:54;;;;;;;5.22;4.93;;;10.70;74.60;;;;;;4973440;28;20034;-80
2021/11/08 09:39:24;;;;;;;5.03;4.63;;;10.70;74.70;;;;;;4988574;28;20046;-80
2021/11/08 09:41:51;;;;;;;4.95;4.65;;;10.70;74.80;;;;;;4959136;28;20043;-80
2021/11/08 09:44:18;;;;;;;4.30;4.10;;;10.70;74.80;;;;;;4973258;28;20162;-86
2021/11/08 09:46:44;;;;;;;3.80;3.60;;;10.80;74.80;;;;;;4952802;28;20042;-83
2021/11/08 09:49:10;;;;;;;4.68;4.38;;;10.90;74.90;;;;;;4969974;28;20049;-88
2021/11/08 09:51:41;;;;;;;4.15;3.95;;;10.90;74.70;;;;;;4972632;28;20046;-82
2021/11/08 09:54:10;;;;;;;3.83;3.63;;;11.10;74.60;;;;;;4973172;28;20038;-82
2021/11/08 09:56:38;;;;;;;4.20;4.00;;;11.30;74.60;;;;;;4974089;28;20027;-81
2021/11/08 09:59:04;;;;;;;4.43;4.13;;;11.40;74.60;;;;;;4970793;28;20392;-82
2021/11/08 10:01:31;;;;;;;4.53;4.28;;;11.50;74.40;;;;;;4969668;28;20030;-82
2021/11/08 10:03:58;;;;;;;4.50;4.30;;;11.60;74.30;;;;;;4958152;28;20046;-83
2021/11/08 10:06:24;;;;;;;4.63;4.40;;;11.70;74.30;;;;;;4973179;28;20030;-82
2021/11/08 10:08:51;;;;;;;4.20;4.00;;;11.90;74.30;;;;;;4956499;28;20050;-82
2021/11/08 10:11:18;;;;;;;4.13;3.85;;;12.10;74.30;;;;;;4973140;28;20027;-85
2021/11/08 10:13:45;;;;;;;4.10;3.90;;;12.20;74.10;;;;;;4971577;28;20031;-86
2021/11/08 10:16:21;;;;;;;4.78;4.38;;;12.30;74.20;;;;;;4951571;28;20039;-88
2021/11/08 10:18:52;;;;;;;3.95;3.75;;;12.30;74.20;;;;;;4970763;28;20023;-87
2021/11/08 10:21:21;;;;;;;5.18;4.80;;;12.40;74.20;;;;;;4955277;28;20051;-87
2021/11/08 10:23:49;;;;;;;8.43;4.13;;;12.40;74.30;;;;;;4985179;28;20046;-85
2021/11/08 10:26:20;;;;;;;5.13;4.60;;;12.40;74.30;;;;;;4965816;28;20038;-85
2021/11/08 10:28:57;;;;;;;4.88;4.68;;;12.40;74.30;;;;;;4972590;28;20035;-82
2021/11/08 10:31:29;;;;;;;4.63;4.32;;;12.50;74.40;;;;;;4976302;28;20277;-86
2021/11/08 10:33:55;;;;;;;;;;;12.50;74.40;;;;;;4959813;28;20510;-85
2021/11/08 10:36:21;;;;;;;4.50;4.20;;;12.50;74.40;;;;;;4973757;28;19921;-85
2021/11/08 10:38:49;;;;;;;5.63;5.22;;;12.60;74.40;;;;;;4977623;28;20033;-87
2021/11/08 10:41:24;;;;;;;4.07;3.88;;;12.60;74.20;;;;;;4957595;28;20039;-84
2021/11/08 10:43:55;;;;;;;4.40;4.20;;;12.70;74.20;;;;;;4971780;28;20043;-86
2021/11/08 10:46:25;;;;;;;;;;;12.80;74.00;;;;;;4976504;28;20038;-84
2021/11/08 10:48:54;;;;;;;4.43;4.22;;;12.90;73.90;;;;;;4958756;28;19917;-87
2021/11/08 10:51:22;;;;;;;4.70;4.50;;;12.90;73.80;;;;;;4971496;28;20552;-87
2021/11/08 10:54:00;;;;;;;5.25;4.95;;;13.00;73.70;;;;;;4957838;28;20039;-85
2021/11/08 10:56:35;;;;;;;5.07;4.88;;;13.10;73.60;;;;;;4975298;28;20415;-86
2021/11/08 10:59:04;;;;;;;6.18;5.88;;;13.10;73.50;;;;;;4974664;28;20051;-88
2021/11/08 11:01:35;;;;;;;5.53;5.22;;;13.20;73.50;;;;;;4959995;28;20039;-89
2021/11/08 11:04:03;;;;;;;8.60;7.25;;;13.20;73.50;;;;;;4975287;28;20042;-87
2021/11/08 11:06:36;;;;;;;5.95;5.55;;;13.30;73.40;;;;;;4975503;28;20388;-86
2021/11/08 11:09:18;;;;;;;5.05;4.75;;;13.40;73.30;;;;;;4989159;28;20479;-86
2021/11/08 11:11:44;;;;;;;5.15;4.85;;;13.50;73.20;;;;;;4975433;28;20027;-85
2021/11/08 11:14:11;;;;;;;5.50;5.10;;;13.60;72.80;;;;;;4978846;28;20042;-81
2021/11/08 11:16:42;;;;;;;5.30;5.03;;;13.60;72.60;;;;;;4970199;28;20035;-79
2021/11/08 11:19:09;;;;;;;;;;;13.60;72.60;;;;;;4969742;28;20030;-79
2021/11/08 11:21:36;;;;;;;5.32;5.03;;;13.60;72.70;;;;;;4969583;28;20302;-80
2021/11/08 11:24:05;;;;;;;5.07;4.80;;;13.60;72.80;;;;;;4972559;28;20041;-80
2021/11/08 11:26:46;;;;;;;5.97;5.47;;;13.60;72.80;;;;;;4971404;28;20031;-80
2021/11/08 11:29:12;;;;;;;5.55;5.25;;;13.50;72.80;;;;;;4969016;28;20030;-79
2021/11/08 11:31:38;;;;;;;4.90;4.70;;;13.50;72.80;;;;;;4967449;28;20042;-79
2021/11/08 11:34:14;;;;;;;4.95;4.65;;;13.50;72.80;;;;;;4972222;28;20049;-79
2021/11/08 11:36:41;;;;;;;5.63;5.18;;;13.50;72.90;;;;;;4970619;28;20427;-79
2021/11/08 11:39:10;;;;;;;5.00;4.80;;;13.50;72.90;;;;;;4971033;28;20079;-80
2021/11/08 11:41:39;;;;;;;6.53;6.13;;;13.50;72.80;;;;;;4954197;28;20051;-79
2021/11/08 11:44:10;;;;;;;4.88;4.68;;;13.50;72.70;;;;;;4969012;28;20039;-85
2021/11/08 11:46:42;;;;;;;5.68;5.28;;;13.60;72.60;;;;;;4969569;28;20023;-86
2021/11/08 11:49:09;;;;;;;5.22;5.03;;;13.60;72.50;;;;;;4972291;28;20046;-81
2021/11/08 11:51:44;;;;;;;5.28;4.95;;;13.60;72.50;;;;;;4954768;28;20046;-84
2021/11/08 11:54:10;;;;;;;6.70;6.22;;;13.70;72.40;;;;;;4972815;28;20026;-84
2021/11/08 11:56:38;;;;;;;5.25;5.05;;;13.70;72.30;;;;;;4950014;28;20048;-82
2021/11/08 11:59:05;;;;;;;5.30;5.00;;;13.70;72.10;;;;;;4955417;28;20050;-85
2021/11/08 12:01:31;;;;;;;5.38;5.07;;;13.80;72.10;;;;;;4954867;28;20043;-86
2021/11/08 12:03:57;;;;;;;5.45;5.15;;;13.80;72.00;;;;;;4973101;28;20041;-84
2021/11/08 12:06:26;;;;;;;5.28;4.93;;;13.80;71.80;;;;;;4972024;28;20404;-86
2021/11/08 12:08:56;;;;;;;5.57;5.28;;;13.80;71.70;;;;;;4980803;28;20034;-83
2021/11/08 12:11:31;;;;;;;4.90;4.70;;;13.90;71.70;;;;;;4971541;28;20034;-81
2021/11/08 12:14:02;;;;;;;6.18;5.57;;;13.90;71.50;;;;;;4972149;28;20031;-82
2021/11/08 12:16:33;;;;;;;;;;;13.90;71.40;;;;;;4977111;28;20031;-81
2021/11/08 12:18:59;;;;;;;4.80;4.60;;;14.00;71.30;;;;;;4974041;28;19909;-82
2021/11/08 12:21:33;;;;;;;5.28;5.05;;;14.00;71.10;;;;;;4968529;28;20042;-84
2021/11/08 12:24:00;;;;;;;5.05;4.85;;;14.10;71.10;;;;;;4973612;28;20051;-84
2021/11/08 12:26:32;;;;;;;5.35;5.15;;;14.10;70.90;;;;;;4975351;28;20073;-85
2021/11/08 12:29:13;;;;;;;6.20;5.68;;;14.10;70.90;;;;;;4956881;28;20043;-86
2021/11/08 12:31:39;;;;;;;5.55;5.35;;;14.20;70.70;;;;;;4968998;28;20046;-86
2021/11/08 12:34:07;;;;;;;5.75;5.45;;;14.30;70.60;;;;;;4975486;28;20498;-86
2021/11/08 12:36:34;;;;;;;5.90;5.60;;;14.30;70.50;;;;;;4946684;28;20039;-84
2021/11/08 12:39:09;;;;;;;5.85;5.55;;;14.30;70.40;;;;;;4975513;28;20495;-84
2021/11/08 12:41:48;;;;;;;5.97;5.68;;;14.40;70.10;;;;;;4958322;28;20531;-84
2021/11/08 12:44:16;;;;;;;5.82;5.53;;;14.40;69.90;;;;;;4974533;28;20065;-81
2021/11/08 12:46:53;;;;;;;5.70;5.40;;;14.40;69.80;;;;;;4974964;28;20027;-81
2021/11/08 12:49:36;;;;;;;6.28;5.88;;;14.40;69.80;;;;;;4975386;28;20023;-81
2021/11/08 12:52:09;;;;;;;5.50;5.28;;;14.40;69.60;;;;;;4983829;28;20041;-81
2021/11/08 12:54:54;;;;;;;5.50;5.30;;;14.40;69.50;;;;;;4973901;28;20039;-81
2021/11/08 12:57:22;;;;;;;5.40;5.20;;;14.20;69.70;;;;;;4976233;28;20038;-81
2021/11/08 13:00:01;;;;;;;5.60;5.30;;;14.20;69.90;;;;;;4978944;28;20488;-81
2021/11/08 13:02:32;;;;;;;5.75;5.40;;;14.20;69.70;;;;;;4977760;28;20260;-81
2021/11/08 13:05:01;;;;;;;5.50;5.25;;;14.20;69.40;;;;;;4978252;28;20042;-81
2021/11/08 13:07:28;;;;;;;6.03;5.72;;;14.20;69.30;;;;;;4978513;28;20053;-81
2021/11/08 13:09:56;;;;;;;5.68;5.40;;;14.30;69.40;;;;;;4976372;28;20034;-81
2021/11/08 13:12:28;;;;;;;5.93;5.53;;;14.30;69.20;;;;;;4975224;28;20023;-81
2021/11/08 13:15:10;;;;;;;4.72;4.53;;;14.30;68.90;;;;;;4958801;28;20040;-81
2021/11/08 13:17:54;;;;;;;4.97;4.78;;;14.30;68.80;;;;;;4961175;28;20042;-81
2021/11/08 13:20:26;;;;;;;5.45;5.25;;;14.30;68.60;;;;;;4978634;28;20050;-81
2021/11/08 13:22:57;;;;;;;5.22;5.03;;;14.20;68.80;;;;;;4997147;28;20022;-81
2021/11/08 13:25:26;;;;;;;5.20;5.00;;;14.20;68.90;;;;;;4963615;28;20051;-82
2021/11/08 13:27:57;;;;;;;5.53;5.30;;;14.20;68.90;;;;;;4988704;28;20042;-81
2021/11/08 13:30:30;;;;;;;5.05;4.85;;;14.10;69.00;;;;;;4957212;28;20036;-81
2021/11/08 13:32:56;;;;;;;5.57;5.18;;;14.00;69.00;;;;;;4961818;28;20030;-82
2021/11/08 13:35:25;;;;;;;4.90;4.70;;;14.00;69.10;;;;;;4958901;28;20039;-81
2021/11/08 13:38:12;;;;;;;5.78;5.38;;;13.90;69.20;;;;;;4972653;28;20042;-81
2021/11/08 13:40:49;;;;;;;5.35;5.15;;;13.90;69.30;;;;;;4977910;28;20027;-82
2021/11/08 13:43:20;;;;;;;5.35;5.07;;;13.90;69.40;;;;;;4978870;28;20034;-82
2021/11/08 13:45:56;;;;;;;5.80;5.53;;;13.80;69.20;;;;;;4974687;28;20031;-82
2021/11/08 13:48:27;;;;;;;5.30;5.10;;;13.90;69.20;;;;;;4974263;28;20046;-81
2021/11/08 13:50:56;;;;;;;4.90;4.70;;;14.00;69.10;;;;;;4989006;28;20026;-81
2021/11/08 13:53:30;;;;;;;5.35;5.15;;;14.00;68.80;;;;;;4961652;28;20407;-81
2021/11/08 13:55:58;;;;;;;5.30;5.10;;;14.10;68.70;;;;;;4977477;28;20396;-81
2021/11/08 13:58:25;;;;;;;5.10;4.90;;;14.20;68.60;;;;;;4977420;28;20034;-83
2021/11/08 14:00:51;;;;;;;5.30;5.00;;;14.20;68.50;;;;;;4975356;28;20050;-81
2021/11/08 14:03:17;;;;;;;5.20;5.00;;;14.20;68.30;;;;;;4976161;28;20035;-81
2021/11/08 14:05:51;;;;;;;5.13;4.93;;;14.20;68.20;;;;;;4986389;28;20042;-81
2021/11/08 14:08:24;;;;;;;5.45;5.20;;;14.30;68.10;;;;;;4978258;28;20411;-81
2021/11/08 14:10:54;;;;;;;5.00;4.80;;;14.20;68.00;;;;;;4957979;28;20031;-81
2021/11/08 14:13:31;;;;;;;5.47;5.22;;;14.20;68.10;;;;;;4969362;28;20053;-82
2021/11/08 14:16:01;;;;;;;5.50;5.30;;;14.10;68.10;;;;;;4975516;28;20049;-87
2021/11/08 14:18:28;;;;;;;5.07;4.77;;;14.20;68.30;;;;;;4974006;28;20400;-81
2021/11/08 14:21:07;;;;;;;5.32;5.13;;;14.10;68.10;;;;;;4972104;28;20026;-82
2021/11/08 14:23:34;;;;;;;5.38;5.18;;;14.00;68.20;;;;;;4981290;28;20499;-82
2021/11/08 14:26:18;;;;;;;5.60;5.35;;;14.00;68.30;;;;;;4976670;28;20068;-81
2021/11/08 14:28:45;;;;;;;6.10;5.70;;;14.10;68.50;;;;;;4976874;28;20045;-80
2021/11/08 14:31:19;;;;;;;5.57;5.32;;;14.10;68.30;;;;;;4976229;28;20065;-81
2021/11/08 14:33:45;;;;;;;5.68;5.38;;;14.00;68.20;;;;;;4973970;28;20038;-81
2021/11/08 14:36:19;;;;;;;5.78;5.47;;;14.00;68.20;;;;;;4974825;28;20035;-81
2021/11/08 14:38:48;;;;;;;5.43;5.13;;;14.10;68.20;;;;;;4987237;28;20027;-81
2021/11/08 14:41:16;;;;;;;5.72;5.43;;;14.00;67.90;;;;;;4978568;28;20484;-81
2021/11/08 14:43:42;;;;;;;6.13;5.82;;;14.00;68.00;;;;;;4979649;28;20038;-80
2021/11/08 14:46:09;;;;;;;5.82;5.53;;;14.00;68.10;;;;;;4986446;28;20038;-81